createdAt,value
2023-04-23T00:00:20.763Z,3.93
2023-04-23T00:01:26.703Z,6.00
2023-04-23T00:02:29.804Z,6.93
2023-04-23T00:03:36.279Z,7.60
2023-04-23T00:04:38.894Z,4.20
2023-04-23T00:05:42.041Z,5.37
2023-04-23T00:06:43.531Z,5.17
2023-04-23T00:07:45.122Z,5.17
2023-04-23T00:08:47.926Z,6.07
2023-04-23T00:09:52.704Z,7.20
2023-04-23T00:10:54.241Z,4.30
2023-04-23T00:11:56.370Z,6.03
2023-04-23T00:12:59.302Z,4.10
2023-04-23T00:14:01.027Z,3.97
2023-04-23T00:15:03.796Z,6.20
2023-04-23T00:16:05.620Z,4.67
2023-04-23T00:17:07.013Z,5.90
2023-04-23T00:18:08.393Z,3.97
2023-04-23T00:19:09.747Z,4.13
2023-04-23T00:20:11.678Z,6.50
2023-04-23T00:21:13.349Z,4.83
2023-04-23T00:22:16.929Z,4.73
2023-04-23T00:23:18.361Z,6.07
2023-04-23T00:24:20.049Z,3.73
2023-04-23T00:25:21.405Z,5.73
2023-04-23T00:26:22.896Z,4.07
2023-04-23T00:27:24.241Z,3.47
2023-04-23T00:28:25.650Z,5.17
2023-04-23T00:29:26.982Z,4.03
2023-04-23T00:30:28.378Z,5.23
2023-04-23T00:31:29.720Z,5.90
2023-04-23T00:32:31.480Z,3.93
2023-04-23T00:33:32.919Z,4.57
2023-04-23T00:34:34.209Z,7.03
2023-04-23T00:35:35.546Z,4.37
2023-04-23T00:36:36.893Z,4.57
2023-04-23T00:37:38.275Z,4.47
2023-04-23T00:38:39.742Z,4.33
2023-04-23T00:39:41.009Z,5.83
2023-04-23T00:40:42.336Z,4.50
2023-04-23T00:41:44.368Z,5.23
2023-04-23T00:42:45.750Z,4.63
2023-04-23T00:43:47.447Z,4.07
2023-04-23T00:44:50.567Z,3.97
2023-04-23T00:45:51.943Z,4.93
2023-04-23T00:46:53.656Z,5.73
2023-04-23T00:47:56.011Z,5.00
2023-04-23T00:48:58.075Z,5.60
2023-04-23T00:50:00.228Z,5.43
2023-04-23T00:51:05.422Z,3.50
2023-04-23T00:52:06.814Z,4.77
2023-04-23T00:53:08.801Z,6.00
2023-04-23T00:54:10.232Z,5.20
2023-04-23T00:55:11.563Z,4.30
2023-04-23T00:56:13.118Z,7.93
2023-04-23T00:57:14.708Z,5.40
2023-04-23T00:58:16.166Z,4.30
2023-04-23T00:59:17.893Z,4.10
2023-04-23T01:00:20.381Z,4.97
2023-04-23T01:01:22.718Z,4.53
2023-04-23T01:02:24.753Z,4.50
2023-04-23T01:03:26.954Z,4.37
2023-04-23T01:04:29.835Z,4.87
2023-04-23T01:05:31.147Z,6.00
2023-04-23T01:06:33.149Z,4.33
2023-04-23T01:07:35.200Z,7.63
2023-04-23T01:08:38.578Z,5.67
2023-04-23T01:09:40.534Z,5.60
2023-04-23T01:10:45.776Z,5.13
2023-04-23T01:11:47.192Z,5.47
2023-04-23T01:12:48.902Z,4.53
2023-04-23T01:13:50.349Z,6.20
2023-04-23T01:14:51.771Z,5.07
2023-04-23T01:15:53.085Z,4.57
2023-04-23T01:16:54.743Z,5.30
2023-04-23T01:17:58.382Z,5.77
2023-04-23T01:18:59.960Z,7.30
2023-04-23T01:20:01.293Z,5.73
2023-04-23T01:21:03.604Z,5.23
2023-04-23T01:22:11.934Z,5.17
2023-04-23T01:23:13.417Z,6.90
2023-04-23T01:24:14.700Z,5.23
2023-04-23T01:25:16.025Z,4.17
2023-04-23T01:26:19.016Z,5.03
2023-04-23T01:27:22.196Z,6.50
2023-04-23T01:28:23.570Z,5.97
2023-04-23T01:29:25.547Z,5.13
2023-04-23T01:30:27.581Z,6.90
2023-04-23T01:31:29.606Z,5.20
2023-04-23T01:32:31.745Z,5.67
2023-04-23T01:33:33.447Z,5.40
2023-04-23T01:34:35.157Z,5.50
2023-04-23T01:35:36.540Z,5.67
2023-04-23T01:36:38.003Z,5.97
2023-04-23T01:37:39.697Z,6.93
2023-04-23T01:38:41.153Z,5.70
2023-04-23T01:39:42.504Z,4.50
2023-04-23T01:40:43.928Z,4.17
2023-04-23T01:41:46.053Z,6.00
2023-04-23T01:42:48.135Z,3.50
2023-04-23T01:43:49.451Z,4.73
2023-04-23T01:44:52.241Z,5.70
2023-04-23T01:45:53.566Z,4.63
2023-04-23T01:46:55.033Z,5.77
2023-04-23T01:47:56.501Z,6.63
2023-04-23T01:48:57.828Z,3.73
2023-04-23T01:49:59.159Z,3.87
2023-04-23T01:51:00.831Z,4.30
2023-04-23T01:52:02.180Z,6.03
2023-04-23T01:53:03.476Z,5.70
2023-04-23T01:54:04.836Z,5.60
2023-04-23T01:55:06.245Z,6.93
2023-04-23T01:56:09.756Z,5.43
2023-04-23T01:57:11.214Z,6.97
2023-04-23T01:58:12.806Z,5.60
2023-04-23T01:59:14.166Z,5.53
2023-04-23T02:00:18.024Z,5.17
2023-04-23T02:01:19.440Z,4.50
2023-04-23T02:02:21.806Z,6.10
2023-04-23T02:03:23.307Z,4.03
2023-04-23T02:04:25.065Z,4.90
2023-04-23T02:05:28.562Z,4.67
2023-04-23T02:06:30.356Z,7.63
2023-04-23T02:07:32.513Z,4.40
2023-04-23T02:08:33.846Z,5.20
2023-04-23T02:09:35.255Z,4.97
2023-04-23T02:10:36.628Z,4.97
2023-04-23T02:11:37.965Z,5.57
2023-04-23T02:12:39.436Z,4.97
2023-04-23T02:13:40.773Z,9.40
2023-04-23T02:14:42.301Z,4.77
2023-04-23T02:15:43.862Z,6.13
2023-04-23T02:16:45.467Z,7.53
2023-04-23T02:17:46.889Z,5.93
2023-04-23T02:18:48.233Z,5.47
2023-04-23T02:19:49.742Z,6.03
2023-04-23T02:20:51.040Z,4.97
2023-04-23T02:21:52.365Z,5.17
2023-04-23T02:22:53.742Z,5.13
2023-04-23T02:23:55.401Z,6.27
2023-04-23T02:24:56.758Z,6.90
2023-04-23T02:25:58.175Z,5.13
2023-04-23T02:26:59.473Z,3.90
2023-04-23T02:28:05.257Z,5.43
2023-04-23T02:29:06.615Z,5.57
2023-04-23T02:30:09.215Z,5.13
2023-04-23T02:31:10.872Z,6.10
2023-04-23T02:32:14.204Z,4.13
2023-04-23T02:33:15.718Z,4.37
2023-04-23T02:34:16.988Z,3.93
2023-04-23T02:35:18.348Z,5.30
2023-04-23T02:36:19.692Z,4.47
2023-04-23T02:37:21.246Z,6.53
2023-04-23T02:38:22.614Z,4.23
2023-04-23T02:39:24.505Z,5.47
2023-04-23T02:40:26.540Z,4.37
2023-04-23T02:41:28.307Z,4.73
2023-04-23T02:42:29.736Z,4.57
2023-04-23T02:43:31.069Z,6.10
2023-04-23T02:44:32.398Z,5.43
2023-04-23T02:45:33.692Z,7.43
2023-04-23T02:46:37.203Z,4.53
2023-04-23T02:47:38.832Z,5.50
2023-04-23T02:48:41.596Z,5.27
2023-04-23T02:49:43.018Z,5.00
2023-04-23T02:50:44.331Z,3.90
2023-04-23T02:51:46.524Z,6.37
2023-04-23T02:52:49.747Z,4.77
2023-04-23T02:53:51.372Z,4.67
2023-04-23T02:54:52.674Z,5.07
2023-04-23T02:55:54.384Z,4.97
2023-04-23T02:56:57.365Z,5.23
2023-04-23T02:57:59.365Z,6.23
2023-04-23T02:59:01.379Z,6.37
2023-04-23T03:00:06.306Z,4.97
2023-04-23T03:01:13.410Z,4.97
2023-04-23T03:02:14.875Z,5.80
2023-04-23T03:03:17.167Z,5.63
2023-04-23T03:04:18.676Z,4.63
2023-04-23T03:05:20.092Z,5.27
2023-04-23T03:06:21.674Z,5.73
2023-04-23T03:07:23.313Z,4.80
2023-04-23T03:08:24.686Z,4.57
2023-04-23T03:09:26.041Z,5.23
2023-04-23T03:10:27.349Z,4.97
2023-04-23T03:11:28.681Z,4.57
2023-04-23T03:12:31.276Z,5.23
2023-04-23T03:13:32.777Z,5.17
2023-04-23T03:14:34.189Z,4.77
2023-04-23T03:15:36.479Z,5.03
2023-04-23T03:16:38.014Z,4.93
2023-04-23T03:17:40.304Z,4.90
2023-04-23T03:18:41.663Z,4.70
2023-04-23T03:19:43.075Z,4.10
2023-04-23T03:20:45.093Z,7.00
2023-04-23T03:21:46.586Z,4.07
2023-04-23T03:22:47.965Z,3.93
2023-04-23T03:23:50.560Z,4.93
2023-04-23T03:24:52.106Z,5.00
2023-04-23T03:25:54.708Z,4.23
2023-04-23T03:26:57.448Z,4.93
2023-04-23T03:27:58.995Z,3.90
2023-04-23T03:29:00.493Z,4.80
2023-04-23T03:30:01.806Z,5.00
2023-04-23T03:31:03.442Z,4.20
2023-04-23T03:32:04.876Z,4.07
2023-04-23T03:33:07.597Z,4.37
2023-04-23T03:34:08.985Z,4.33
2023-04-23T03:35:11.278Z,4.37
2023-04-23T03:36:16.136Z,4.40
2023-04-23T03:37:17.858Z,4.43
2023-04-23T03:38:19.293Z,5.03
2023-04-23T03:39:21.076Z,4.23
2023-04-23T03:40:28.112Z,4.07
2023-04-23T03:41:33.505Z,3.93
2023-04-23T03:42:35.594Z,3.90
2023-04-23T03:43:37.037Z,4.60
2023-04-23T03:44:38.455Z,4.23
2023-04-23T03:45:40.697Z,3.90
2023-04-23T03:46:42.514Z,3.67
2023-04-23T03:47:44.747Z,4.43
2023-04-23T03:48:46.304Z,4.10
2023-04-23T03:49:54.800Z,4.60
2023-04-23T03:50:56.461Z,6.07
2023-04-23T03:52:08.580Z,3.87
2023-04-23T03:53:13.262Z,3.47
2023-04-23T03:54:41.261Z,4.23
2023-04-23T03:55:48.922Z,4.00
2023-04-23T03:56:50.616Z,4.53
2023-04-23T03:57:55.872Z,3.83
2023-04-23T03:58:59.078Z,5.33
2023-04-23T04:00:00.799Z,4.77
2023-04-23T04:01:02.149Z,4.33
2023-04-23T04:02:06.534Z,3.30
2023-04-23T04:03:08.884Z,4.77
2023-04-23T04:04:10.642Z,2.93
2023-04-23T04:05:12.661Z,2.47
2023-04-23T04:06:14.091Z,2.93
2023-04-23T04:07:15.746Z,3.60
2023-04-23T04:08:17.209Z,3.27
2023-04-23T04:09:18.516Z,3.17
2023-04-23T04:10:20.088Z,3.60
2023-04-23T04:11:21.526Z,3.13
2023-04-23T04:12:22.956Z,3.00
2023-04-23T04:13:24.267Z,2.93
2023-04-23T04:14:25.620Z,3.20
2023-04-23T04:15:26.972Z,4.10
2023-04-23T04:16:28.366Z,3.67
2023-04-23T04:17:29.930Z,3.70
2023-04-23T04:18:31.291Z,3.17
2023-04-23T04:19:33.021Z,3.57
2023-04-23T04:20:34.314Z,3.03
2023-04-23T04:21:35.679Z,3.60
2023-04-23T04:22:37.040Z,3.90
2023-04-23T04:23:38.575Z,3.40
2023-04-23T04:24:41.879Z,3.07
2023-04-23T04:25:43.708Z,3.83
2023-04-23T04:26:47.557Z,2.90
2023-04-23T04:27:49.492Z,3.87
2023-04-23T04:28:51.477Z,4.23
2023-04-23T04:30:05.718Z,3.17
2023-04-23T04:31:08.563Z,3.47
2023-04-23T04:32:10.278Z,4.63
2023-04-23T04:33:11.589Z,2.50
2023-04-23T04:34:14.748Z,3.17
2023-04-23T04:35:16.404Z,2.97
2023-04-23T04:36:18.155Z,3.73
2023-04-23T04:37:20.665Z,2.73
2023-04-23T04:38:22.311Z,4.30
2023-04-23T04:39:23.588Z,3.27
2023-04-23T04:40:26.432Z,3.50
2023-04-23T04:41:27.792Z,5.07
2023-04-23T04:42:29.150Z,4.23
2023-04-23T04:43:30.506Z,4.00
2023-04-23T04:44:32.147Z,5.50
2023-04-23T04:45:33.856Z,3.93
2023-04-23T04:46:40.570Z,4.13
2023-04-23T04:47:42.245Z,4.20
2023-04-23T04:48:43.576Z,4.27
2023-04-23T04:49:45.437Z,5.40
2023-04-23T04:50:47.000Z,4.20
2023-04-23T04:51:48.365Z,4.23
2023-04-23T04:52:49.736Z,4.20
2023-04-23T04:53:51.084Z,4.07
2023-04-23T04:54:52.443Z,4.07
2023-04-23T04:55:53.711Z,4.57
2023-04-23T04:56:55.213Z,6.00
2023-04-23T04:57:56.747Z,6.07
2023-04-23T04:58:58.031Z,4.87
2023-04-23T05:00:02.254Z,5.07
2023-04-23T05:01:03.892Z,5.87
2023-04-23T05:02:05.347Z,5.03
2023-04-23T05:03:06.968Z,5.30
2023-04-23T05:04:08.564Z,5.27
2023-04-23T05:05:09.976Z,5.30
2023-04-23T05:06:11.296Z,5.93
2023-04-23T05:07:12.688Z,5.20
2023-04-23T05:08:16.815Z,5.17
2023-04-23T05:09:18.196Z,5.40
2023-04-23T05:10:20.604Z,5.33
2023-04-23T05:11:22.130Z,5.70
2023-04-23T05:12:23.750Z,5.27
2023-04-23T05:13:25.091Z,5.37
2023-04-23T05:14:26.658Z,5.47
2023-04-23T05:15:28.067Z,5.87
2023-04-23T05:16:29.451Z,7.23
2023-04-23T05:17:30.918Z,6.53
2023-04-23T05:18:32.282Z,5.53
2023-04-23T05:19:33.619Z,5.77
2023-04-23T05:20:35.496Z,6.23
2023-04-23T05:21:36.840Z,5.90
2023-04-23T05:22:41.707Z,6.03
2023-04-23T05:23:43.085Z,6.97
2023-04-23T05:24:45.386Z,5.97
2023-04-23T05:25:46.713Z,7.13
2023-04-23T05:26:47.996Z,5.47
2023-04-23T05:27:49.314Z,7.07
2023-04-23T05:28:50.662Z,8.67
2023-04-23T05:29:52.016Z,7.43
2023-04-23T05:30:53.353Z,6.43
2023-04-23T05:31:54.707Z,6.27
2023-04-23T05:32:56.316Z,5.90
2023-04-23T05:33:57.656Z,6.40
2023-04-23T05:35:02.790Z,7.07
2023-04-23T05:36:04.243Z,6.50
2023-04-23T05:37:06.285Z,7.50
2023-04-23T05:38:07.720Z,6.60
2023-04-23T05:39:09.244Z,6.63
2023-04-23T05:40:10.689Z,7.13
2023-04-23T05:41:12.064Z,8.70
2023-04-23T05:42:13.528Z,7.43
2023-04-23T05:43:14.849Z,6.70
2023-04-23T05:44:16.201Z,6.67
2023-04-23T05:45:17.491Z,8.27
2023-04-23T05:46:18.948Z,6.27
2023-04-23T05:47:21.195Z,6.70
2023-04-23T05:48:22.649Z,6.07
2023-04-23T05:49:23.943Z,6.57
2023-04-23T05:50:25.345Z,6.07
2023-04-23T05:51:27.369Z,6.20
2023-04-23T05:52:31.481Z,6.23
2023-04-23T05:53:32.999Z,6.43
2023-04-23T05:54:34.356Z,5.90
2023-04-23T05:55:35.927Z,6.27
2023-04-23T05:56:37.309Z,6.40
2023-04-23T05:57:39.066Z,6.43
2023-04-23T05:58:40.459Z,8.47
2023-04-23T05:59:42.147Z,8.13
2023-04-23T06:00:43.494Z,8.03
2023-04-23T06:01:44.828Z,7.70
2023-04-23T06:02:46.267Z,6.47
2023-04-23T06:03:47.960Z,6.30
2023-04-23T06:04:50.071Z,8.00
2023-04-23T06:05:51.959Z,7.77
2023-04-23T06:06:58.419Z,7.30
2023-04-23T06:07:59.719Z,5.77
2023-04-23T06:09:01.168Z,6.40
2023-04-23T06:10:03.735Z,9.03
2023-04-23T06:11:05.952Z,7.10
2023-04-23T06:12:07.525Z,6.77
2023-04-23T06:13:09.083Z,5.70
2023-04-23T06:14:10.563Z,6.27
2023-04-23T06:15:12.074Z,5.90
2023-04-23T06:16:13.580Z,6.77
2023-04-23T06:17:15.045Z,6.13
2023-04-23T06:18:16.420Z,5.93
2023-04-23T06:19:17.825Z,6.17
2023-04-23T06:20:19.517Z,5.50
2023-04-23T06:21:20.833Z,5.57
2023-04-23T06:22:22.309Z,5.30
2023-04-23T06:23:23.735Z,5.03
2023-04-23T06:24:25.365Z,5.00
2023-04-23T06:25:27.212Z,6.57
2023-04-23T06:26:28.854Z,5.90
2023-04-23T06:27:36.948Z,4.87
2023-04-23T06:28:45.775Z,4.90
2023-04-23T06:29:59.069Z,4.73
2023-04-23T06:31:00.876Z,5.37
2023-04-23T06:32:02.877Z,5.40
2023-04-23T06:33:04.300Z,5.33
2023-04-23T06:34:06.028Z,4.23
2023-04-23T06:35:08.523Z,8.90
2023-04-23T06:36:11.065Z,4.77
2023-04-23T06:37:12.420Z,4.00
2023-04-23T06:38:13.761Z,4.73
2023-04-23T06:39:15.052Z,3.40
2023-04-23T06:40:16.382Z,3.73
2023-04-23T06:41:17.885Z,5.47
2023-04-23T06:42:19.941Z,3.90
2023-04-23T06:43:39.713Z,3.00
2023-04-23T06:45:06.233Z,3.38
2023-04-23T06:46:07.838Z,3.30
2023-04-23T06:47:09.225Z,3.45
2023-04-23T06:48:10.991Z,3.13
2023-04-23T06:49:12.501Z,3.13
2023-04-23T06:50:14.193Z,3.00
2023-04-23T06:51:16.132Z,2.72
2023-04-23T06:52:17.421Z,3.67
2023-04-23T06:53:18.747Z,3.80
2023-04-23T06:54:20.083Z,2.80
2023-04-23T06:55:22.004Z,2.93
2023-04-23T06:56:23.490Z,3.23
2023-04-23T06:57:25.032Z,3.93
2023-04-23T06:58:31.295Z,3.63
2023-04-23T06:59:32.616Z,3.40
2023-04-23T07:00:34.956Z,4.70
2023-04-23T07:01:37.023Z,3.20
2023-04-23T07:02:38.540Z,3.23
2023-04-23T07:03:39.985Z,3.30
2023-04-23T07:04:41.964Z,5.57
2023-04-23T07:05:43.450Z,3.65
2023-04-23T07:06:44.736Z,3.40
2023-04-23T07:07:46.039Z,3.63
2023-04-23T07:08:47.395Z,3.43
2023-04-23T07:09:48.706Z,3.20
2023-04-23T07:10:50.176Z,3.78
2023-04-23T07:11:51.541Z,3.28
2023-04-23T07:12:52.882Z,3.67
2023-04-23T07:13:54.192Z,3.50
2023-04-23T07:14:56.129Z,3.67
2023-04-23T07:15:57.436Z,3.03
2023-04-23T07:16:59.307Z,3.40
2023-04-23T07:18:01.065Z,3.22
2023-04-23T07:19:02.550Z,4.78
2023-04-23T07:20:08.184Z,3.58
2023-04-23T07:21:09.651Z,3.08
2023-04-23T07:22:10.969Z,3.60
2023-04-23T07:23:12.310Z,3.35
2023-04-23T07:24:13.652Z,4.88
2023-04-23T07:25:14.941Z,4.38
2023-04-23T07:26:17.615Z,3.17
2023-04-23T07:27:19.449Z,4.88
2023-04-23T07:28:20.780Z,3.83
2023-04-23T07:29:22.101Z,3.92
2023-04-23T07:30:24.112Z,3.25
2023-04-23T07:31:25.635Z,4.07
2023-04-23T07:32:28.238Z,3.00
2023-04-23T07:33:29.849Z,5.25
2023-04-23T07:34:31.178Z,3.58
2023-04-23T07:35:32.437Z,4.78
2023-04-23T07:36:33.756Z,3.15
2023-04-23T07:37:35.160Z,3.13
2023-04-23T07:38:36.418Z,4.95
2023-04-23T07:39:37.718Z,3.20
2023-04-23T07:40:39.048Z,3.33
2023-04-23T07:41:40.487Z,3.83
2023-04-23T07:42:41.909Z,4.25
2023-04-23T07:43:43.190Z,5.40
2023-04-23T07:44:44.526Z,3.05
2023-04-23T07:45:45.972Z,3.53
2023-04-23T07:46:47.393Z,3.33
2023-04-23T07:47:49.752Z,4.40
2023-04-23T07:48:52.959Z,3.92
2023-04-23T07:49:54.250Z,3.67
2023-04-23T07:50:55.604Z,3.47
2023-04-23T07:51:57.053Z,5.22
2023-04-23T07:52:58.370Z,4.47
2023-04-23T07:53:59.795Z,7.72
2023-04-23T07:55:01.591Z,4.75
2023-04-23T07:56:02.947Z,3.13
2023-04-23T07:57:04.265Z,4.97
2023-04-23T07:58:05.625Z,3.63
2023-04-23T07:59:06.994Z,3.03
2023-04-23T08:00:09.404Z,3.95
2023-04-23T08:01:13.367Z,3.92
2023-04-23T08:02:15.110Z,4.00
2023-04-23T08:03:16.590Z,3.40
2023-04-23T08:04:18.229Z,4.25
2023-04-23T08:05:19.716Z,2.97
2023-04-23T08:06:21.065Z,4.18
2023-04-23T08:07:22.379Z,3.78
2023-04-23T08:08:23.667Z,2.92
2023-04-23T08:09:26.109Z,2.63
2023-04-23T08:10:27.557Z,3.67
2023-04-23T08:11:29.582Z,3.40
2023-04-23T08:12:31.059Z,3.38
2023-04-23T08:13:32.508Z,4.60
2023-04-23T08:14:33.842Z,3.60
2023-04-23T08:15:38.128Z,3.72
2023-04-23T08:16:39.676Z,4.18
2023-04-23T08:17:41.073Z,2.72
2023-04-23T08:18:44.247Z,3.40
2023-04-23T08:19:52.320Z,4.30
2023-04-23T08:20:53.872Z,2.63
2023-04-23T08:21:55.276Z,3.47
2023-04-23T08:22:56.654Z,4.30
2023-04-23T08:23:58.091Z,2.67
2023-04-23T08:25:00.368Z,3.15
2023-04-23T08:26:02.827Z,3.65
2023-04-23T08:27:04.335Z,4.57
2023-04-23T08:28:05.959Z,3.25
2023-04-23T08:29:08.596Z,2.55
2023-04-23T08:30:11.065Z,3.78
2023-04-23T08:31:25.052Z,2.85
2023-04-23T08:32:28.919Z,4.93
2023-04-23T08:33:30.306Z,2.50
2023-04-23T08:34:32.345Z,4.25
2023-04-23T08:35:34.793Z,2.92
2023-04-23T08:36:36.143Z,3.20
2023-04-23T08:37:39.018Z,2.85
2023-04-23T08:38:40.406Z,4.50
2023-04-23T08:39:42.184Z,4.13
2023-04-23T08:40:45.135Z,2.70
2023-04-23T08:41:49.156Z,2.47
2023-04-23T08:42:52.838Z,3.05
2023-04-23T08:44:10.271Z,2.95
2023-04-23T08:45:12.453Z,2.55
2023-04-23T08:46:16.672Z,5.00
2023-04-23T08:47:18.182Z,2.33
2023-04-23T08:48:19.715Z,5.20
2023-04-23T08:49:21.083Z,3.58
2023-04-23T08:50:23.243Z,3.03
2023-04-23T08:51:25.828Z,4.00
2023-04-23T08:52:29.215Z,3.35
2023-04-23T08:53:32.586Z,2.78
2023-04-23T08:54:34.792Z,3.53
2023-04-23T08:55:36.630Z,3.55
2023-04-23T08:56:38.580Z,3.30
2023-04-23T08:57:40.938Z,2.50
2023-04-23T08:58:43.041Z,3.33
2023-04-23T08:59:44.997Z,2.38
2023-04-23T09:00:46.817Z,5.30
2023-04-23T09:01:48.235Z,3.63
2023-04-23T09:02:50.167Z,1.88
2023-04-23T09:03:52.995Z,2.78
2023-04-23T09:04:56.133Z,2.72
2023-04-23T09:05:57.648Z,2.47
2023-04-23T09:06:58.929Z,3.63
2023-04-23T09:08:00.409Z,2.97
2023-04-23T09:09:02.532Z,2.75
2023-04-23T09:10:05.927Z,2.40
2023-04-23T09:11:07.465Z,2.00
2023-04-23T09:12:09.145Z,2.95
2023-04-23T09:13:12.131Z,2.33
2023-04-23T09:14:14.236Z,3.85
2023-04-23T09:15:16.855Z,2.58
2023-04-23T09:16:18.499Z,2.40
2023-04-23T09:17:20.933Z,3.10
2023-04-23T09:18:22.324Z,3.28
2023-04-23T09:19:27.163Z,2.33
2023-04-23T09:20:28.495Z,2.03
2023-04-23T09:21:29.826Z,2.00
2023-04-23T09:22:52.361Z,3.20
2023-04-23T09:23:53.826Z,3.60
2023-04-23T09:24:55.141Z,3.72
2023-04-23T09:25:56.618Z,2.85
2023-04-23T09:26:58.725Z,2.58
2023-04-23T09:28:01.670Z,2.67
2023-04-23T09:29:03.469Z,2.50
2023-04-23T09:30:09.808Z,3.47
2023-04-23T09:31:11.176Z,3.42
2023-04-23T09:32:12.621Z,3.30
2023-04-23T09:33:16.807Z,1.58
2023-04-23T09:34:19.249Z,3.03
2023-04-23T09:35:20.772Z,2.65
2023-04-23T09:36:23.630Z,2.58
2023-04-23T09:37:28.137Z,4.10
2023-04-23T09:38:29.479Z,2.55
2023-04-23T09:39:30.900Z,2.42
2023-04-23T09:40:32.232Z,4.13
2023-04-23T09:41:33.588Z,2.83
2023-04-23T09:42:35.879Z,1.75
2023-04-23T09:43:37.208Z,1.95
2023-04-23T09:44:38.571Z,2.97
2023-04-23T09:45:49.691Z,4.20
2023-04-23T09:46:51.148Z,2.25
2023-04-23T09:47:52.597Z,2.88
2023-04-23T09:48:56.556Z,3.35
2023-04-23T09:49:58.889Z,2.90
2023-04-23T09:51:02.010Z,2.08
2023-04-23T09:52:06.117Z,2.75
2023-04-23T09:53:08.906Z,2.95
2023-04-23T09:54:11.565Z,2.20
2023-04-23T09:55:12.928Z,4.80
2023-04-23T09:56:14.260Z,1.92
2023-04-23T09:57:15.849Z,2.30
2023-04-23T09:58:17.173Z,2.38
2023-04-23T09:59:32.073Z,2.58
2023-04-23T10:00:38.273Z,3.53
2023-04-23T10:01:44.820Z,2.17
2023-04-23T10:02:51.330Z,3.58
2023-04-23T10:03:53.483Z,2.33
2023-04-23T10:05:03.436Z,2.85
2023-04-23T10:06:36.909Z,2.30
2023-04-23T10:07:39.374Z,2.10
2023-04-23T10:08:41.087Z,1.80
2023-04-23T10:09:42.751Z,2.45
2023-04-23T10:10:59.564Z,3.28
2023-04-23T10:12:04.478Z,2.00
2023-04-23T10:13:05.815Z,4.28
2023-04-23T10:14:08.032Z,4.03
2023-04-23T10:15:09.882Z,3.28
2023-04-23T10:16:21.549Z,1.92
2023-04-23T10:17:24.423Z,1.88
2023-04-23T10:18:25.948Z,2.38
2023-04-23T10:19:28.937Z,3.20
2023-04-23T10:20:30.820Z,2.03
2023-04-23T10:21:39.669Z,1.85
2023-04-23T10:22:53.455Z,5.00
2023-04-23T10:23:55.113Z,6.43
2023-04-23T10:25:00.503Z,3.50
2023-04-23T10:26:03.924Z,2.58
2023-04-23T10:27:05.410Z,1.63
2023-04-23T10:28:09.042Z,2.38
2023-04-23T10:29:14.209Z,2.33
2023-04-23T10:30:16.285Z,1.73
2023-04-23T10:31:19.831Z,3.88
2023-04-23T10:32:21.583Z,2.80
2023-04-23T10:34:31.366Z,2.13
2023-04-23T10:35:33.691Z,2.42
2023-04-23T10:36:35.045Z,1.63
2023-04-23T10:37:37.057Z,3.17
2023-04-23T10:38:45.601Z,2.10
2023-04-23T10:39:58.664Z,2.75
2023-04-23T10:41:01.179Z,2.67
2023-04-23T10:42:03.920Z,1.90
2023-04-23T10:43:05.838Z,2.70
2023-04-23T10:44:11.016Z,1.70
2023-04-23T10:46:36.998Z,5.18
2023-04-23T10:47:40.025Z,3.58
2023-04-23T10:49:00.322Z,1.98
2023-04-23T10:50:17.849Z,2.05
2023-04-23T10:52:02.425Z,2.55
2023-04-23T10:52:43.039Z,2.72
2023-04-23T10:53:45.390Z,2.67
2023-04-23T10:54:56.400Z,2.97
2023-04-23T10:56:07.798Z,2.65
2023-04-23T10:57:09.692Z,1.27
2023-04-23T10:58:10.981Z,2.65
2023-04-23T10:59:22.619Z,1.75
2023-04-23T11:00:24.228Z,1.85
2023-04-23T11:01:26.881Z,2.40
2023-04-23T11:02:42.595Z,3.15
2023-04-23T11:03:45.005Z,1.98
2023-04-23T11:05:01.408Z,1.63
2023-04-23T11:06:03.495Z,1.45
2023-04-23T11:07:05.997Z,4.13
2023-04-23T11:08:18.842Z,1.90
2023-04-23T11:09:40.298Z,1.52
2023-04-23T11:10:58.393Z,2.75
2023-04-23T11:12:01.412Z,2.70
2023-04-23T11:13:22.920Z,2.13
2023-04-23T11:14:37.764Z,1.73
2023-04-23T11:15:42.003Z,1.80
2023-04-23T11:16:43.446Z,2.58
2023-04-23T11:17:44.998Z,2.03
2023-04-23T11:18:56.320Z,1.40
2023-04-23T11:20:03.903Z,1.77
2023-04-23T11:21:05.400Z,2.22
2023-04-23T11:22:08.575Z,1.30
2023-04-23T11:23:28.845Z,2.47
2023-04-23T11:24:30.266Z,2.55
2023-04-23T11:25:31.826Z,2.08
2023-04-23T11:26:34.390Z,1.67
2023-04-23T11:27:38.166Z,2.10
2023-04-23T11:28:41.760Z,1.67
2023-04-23T11:29:45.971Z,3.08
2023-04-23T11:30:50.574Z,1.60
2023-04-23T11:32:01.515Z,1.63
2023-04-23T11:33:05.044Z,1.92
2023-04-23T11:34:08.574Z,1.73
2023-04-23T11:35:13.564Z,1.80
2023-04-23T11:36:15.689Z,1.42
2023-04-23T11:37:17.747Z,3.30
2023-04-23T11:38:20.794Z,2.97
2023-04-23T11:39:24.075Z,2.35
2023-04-23T11:40:25.723Z,2.67
2023-04-23T11:41:30.022Z,2.15
2023-04-23T11:42:31.541Z,1.65
2023-04-23T11:43:33.604Z,4.82
2023-04-23T11:44:37.803Z,2.22
2023-04-23T11:45:39.137Z,1.73
2023-04-23T11:46:40.573Z,1.92
2023-04-23T11:47:41.999Z,2.45
2023-04-23T11:48:43.326Z,2.67
2023-04-23T11:49:45.269Z,1.80
2023-04-23T11:50:47.234Z,1.67
2023-04-23T11:51:48.896Z,2.28
2023-04-23T11:52:50.417Z,1.65
2023-04-23T11:53:51.710Z,1.58
2023-04-23T11:54:53.008Z,2.38
2023-04-23T11:55:54.310Z,2.00
2023-04-23T11:56:56.420Z,3.47
2023-04-23T11:57:58.160Z,2.10
2023-04-23T11:59:00.333Z,1.58
2023-04-23T12:00:04.527Z,1.73
2023-04-23T12:01:13.359Z,2.40
2023-04-23T12:02:14.806Z,1.60
2023-04-23T12:03:16.572Z,1.80
2023-04-23T12:04:22.420Z,1.65
2023-04-23T12:05:33.443Z,1.70
2023-04-23T12:06:34.781Z,1.90
2023-04-23T12:07:36.455Z,1.65
2023-04-23T12:08:40.397Z,2.47
2023-04-23T12:09:41.930Z,3.17
2023-04-23T12:10:47.645Z,2.10
2023-04-23T12:11:50.879Z,3.83
2023-04-23T12:12:52.753Z,2.85
2023-04-23T12:13:54.150Z,1.55
2023-04-23T12:15:03.328Z,1.48
2023-04-23T12:16:05.123Z,2.17
2023-04-23T12:17:10.897Z,2.15
2023-04-23T12:18:12.264Z,1.75
2023-04-23T12:19:14.524Z,2.40
2023-04-23T12:20:21.881Z,1.10
2023-04-23T12:21:26.109Z,2.42
2023-04-23T12:22:28.283Z,2.53
2023-04-23T12:23:29.635Z,32.78
2023-04-23T12:24:31.995Z,132.70
2023-04-23T12:25:33.456Z,104.32
2023-04-23T12:27:42.885Z,59.67
2023-04-23T12:28:50.866Z,57.55
2023-04-23T12:30:01.696Z,31.85
2023-04-23T12:31:04.012Z,73.95
2023-04-23T12:32:05.533Z,11.55
2023-04-23T12:33:10.561Z,7.65
2023-04-23T12:34:14.531Z,2.50
2023-04-23T12:35:15.948Z,1.58
2023-04-23T12:36:17.352Z,2.17
2023-04-23T12:37:18.834Z,4.60
2023-04-23T12:38:24.179Z,2.42
2023-04-23T12:39:33.798Z,1.38
2023-04-23T12:40:35.347Z,3.13
2023-04-23T12:41:36.688Z,1.58
2023-04-23T12:42:38.030Z,2.28
2023-04-23T12:43:39.359Z,1.38
2023-04-23T12:44:40.797Z,1.27
2023-04-23T12:45:42.182Z,1.20
2023-04-23T12:46:43.606Z,1.15
2023-04-23T12:47:44.928Z,1.63
2023-04-23T12:48:46.245Z,4.63
2023-04-23T12:49:49.501Z,1.30
2023-04-23T12:50:50.832Z,1.27
2023-04-23T12:51:52.752Z,2.83
2023-04-23T12:52:54.151Z,2.22
2023-04-23T12:53:55.452Z,1.65
2023-04-23T12:54:58.960Z,2.08
2023-04-23T12:56:00.344Z,3.42
2023-04-23T12:57:02.924Z,1.33
2023-04-23T12:58:04.223Z,2.80
2023-04-23T12:59:05.629Z,1.67
2023-04-23T13:00:08.953Z,3.92
2023-04-23T13:01:12.606Z,1.70
2023-04-23T13:02:14.976Z,2.35
2023-04-23T13:03:17.433Z,1.67
2023-04-23T13:04:18.846Z,3.13
2023-04-23T13:05:20.167Z,3.15
2023-04-23T13:06:21.460Z,1.83
2023-04-23T13:07:23.040Z,1.70
2023-04-23T13:08:24.412Z,3.70
2023-04-23T13:09:27.691Z,2.25
2023-04-23T13:10:30.893Z,2.22
2023-04-23T13:11:32.689Z,1.55
2023-04-23T13:12:34.046Z,2.70
2023-04-23T13:13:35.622Z,1.15
2023-04-23T13:14:36.926Z,3.30
2023-04-23T13:15:38.242Z,1.85
2023-04-23T13:16:39.656Z,1.05
2023-04-23T13:17:41.685Z,1.10
2023-04-23T13:18:44.019Z,1.60
2023-04-23T13:19:45.514Z,2.00
2023-04-23T13:20:46.831Z,1.45
2023-04-23T13:21:48.209Z,3.65
2023-04-23T13:22:49.510Z,1.50
2023-04-23T13:23:50.776Z,2.53
2023-04-23T13:24:52.171Z,1.55
2023-04-23T13:25:53.523Z,1.63
2023-04-23T13:26:55.221Z,1.98
2023-04-23T13:27:56.639Z,1.15
2023-04-23T13:29:01.408Z,1.30
2023-04-23T13:30:03.256Z,1.23
2023-04-23T13:31:04.901Z,2.47
2023-04-23T13:32:06.731Z,3.15
2023-04-23T13:33:08.374Z,3.60
2023-04-23T13:34:09.699Z,1.73
2023-04-23T13:35:11.165Z,3.38
2023-04-23T13:36:12.493Z,1.73
2023-04-23T13:37:13.833Z,2.30
2023-04-23T13:38:15.188Z,2.20
2023-04-23T13:39:18.092Z,2.55
2023-04-23T13:40:19.390Z,1.33
2023-04-23T13:41:20.814Z,1.90
2023-04-23T13:42:22.235Z,1.70
2023-04-23T13:43:23.536Z,1.50
2023-04-23T13:44:24.854Z,1.67
2023-04-23T13:45:26.342Z,2.00
2023-04-23T13:46:27.777Z,3.00
2023-04-23T13:47:31.582Z,3.35
2023-04-23T13:48:33.380Z,1.40
2023-04-23T13:49:34.785Z,1.50
2023-04-23T13:50:36.424Z,2.22
2023-04-23T13:51:37.919Z,1.10
2023-04-23T13:52:39.803Z,1.23
2023-04-23T13:53:43.224Z,2.58
2023-04-23T13:54:47.763Z,2.05
2023-04-23T13:55:49.525Z,2.25
2023-04-23T13:56:50.942Z,1.73
2023-04-23T13:57:57.660Z,2.05
2023-04-23T13:59:18.918Z,2.72